Time;durP1;ratioP1;P1;durP2;ratioP2;P2;SDS_P1;SDS_P2;PMS_P1;PMS_P2;Temp;Humidity;BMP_temperature;BMP_pressure;BME280_temperature;BME280_humidity;BME280_pressure;Samples;Min_cycle;Max_cycle;Signal;HPM_P1;HPM_P2
2024/02/05 00:01:46;;;;;;;0.65;0.45;;;11.10;99.90;;;;;;4974132;28;20037;-77
2024/02/05 00:04:11;;;;;;;4.07;0.57;;;11.00;99.90;;;;;;4981014;28;20113;-77
2024/02/05 00:06:37;;;;;;;3.25;1.08;;;11.10;99.90;;;;;;4979580;28;20160;-77
2024/02/05 00:09:05;;;;;;;1.27;0.38;;;11.10;99.90;;;;;;4981644;28;20039;-77
2024/02/05 00:11:30;;;;;;;5.68;0.68;;;11.10;99.90;;;;;;4975978;28;20035;-77
2024/02/05 00:13:57;;;;;;;7.88;1.23;;;11.10;99.90;;;;;;4987188;28;20643;-77
2024/02/05 00:16:22;;;;;;;2.17;0.57;;;11.00;99.90;;;;;;4978519;28;20047;-77
2024/02/05 00:18:48;;;;;;;0.52;0.32;;;11.00;99.90;;;;;;4988651;28;20050;-77
2024/02/05 00:21:14;;;;;;;3.97;0.52;;;11.00;99.90;;;;;;4979485;28;20142;-77
2024/02/05 00:23:39;;;;;;;2.45;0.55;;;11.00;99.90;;;;;;4983695;28;20460;-76
2024/02/05 00:26:05;;;;;;;5.68;0.63;;;11.00;99.90;;;;;;4984816;28;20035;-76
2024/02/05 00:28:31;;;;;;;3.00;0.43;;;11.00;99.90;;;;;;4985670;28;20077;-77
2024/02/05 00:30:57;;;;;;;0.45;0.20;;;11.00;99.90;;;;;;4982971;28;20050;-76
2024/02/05 00:33:22;;;;;;;3.33;0.90;;;11.00;99.90;;;;;;4966690;28;20181;-76
2024/02/05 00:35:48;;;;;;;0.60;0.32;;;11.00;99.90;;;;;;4964726;28;20050;-76
2024/02/05 00:38:13;;;;;;;9.60;0.93;;;11.00;99.90;;;;;;4985026;28;20047;-76
2024/02/05 00:40:41;;;;;;;6.00;0.73;;;11.10;99.90;;;;;;4980128;28;20183;-76
2024/02/05 00:43:07;;;;;;;1.20;0.50;;;11.10;99.90;;;;;;4985650;28;20034;-76
2024/02/05 00:45:33;;;;;;;3.03;0.45;;;11.00;99.90;;;;;;4980129;28;20050;-78
2024/02/05 00:47:59;;;;;;;3.05;0.50;;;11.00;99.90;;;;;;4972642;28;20042;-77
2024/02/05 00:50:24;;;;;;;7.28;1.33;;;11.10;99.90;;;;;;4986810;28;20093;-76
2024/02/05 00:52:50;;;;;;;4.72;1.30;;;11.00;99.90;;;;;;4978584;28;20053;-77
2024/02/05 00:55:16;;;;;;;8.32;1.75;;;11.10;99.90;;;;;;4987591;28;20056;-77
2024/02/05 00:57:41;;;;;;;4.55;0.85;;;11.10;99.90;;;;;;4985217;28;20801;-76
2024/02/05 01:00:08;;;;;;;4.38;1.30;;;11.20;99.90;;;;;;4991810;28;20042;-77
2024/02/05 01:02:35;;;;;;;4.60;1.15;;;11.20;99.90;;;;;;4983148;28;20125;-78
2024/02/05 01:05:01;;;;;;;3.42;0.90;;;11.30;99.90;;;;;;4987954;28;20407;-77
2024/02/05 01:07:27;;;;;;;5.75;0.75;;;11.30;99.90;;;;;;4973527;28;20050;-82
2024/02/05 01:09:52;;;;;;;4.50;1.05;;;11.30;99.90;;;;;;4987236;28;20058;-76
2024/02/05 01:12:18;;;;;;;3.22;0.52;;;11.30;99.90;;;;;;4984664;28;20708;-77
2024/02/05 01:14:44;;;;;;;8.30;0.60;;;11.30;99.90;;;;;;4995006;28;20057;-77
2024/02/05 01:17:11;;;;;;;4.72;0.77;;;11.30;99.90;;;;;;4986920;28;20039;-78
2024/02/05 01:19:37;;;;;;;2.15;1.30;;;11.30;99.90;;;;;;4985476;28;20073;-85
2024/02/05 01:22:04;;;;;;;1.20;0.65;;;11.30;99.90;;;;;;4984244;28;20120;-77
2024/02/05 01:24:30;;;;;;;1.55;0.50;;;11.30;99.90;;;;;;4979517;28;20245;-77
2024/02/05 01:26:56;;;;;;;3.35;0.45;;;11.30;99.90;;;;;;4971900;28;20509;-77
2024/02/05 01:29:21;;;;;;;10.48;1.48;;;11.30;99.90;;;;;;4983626;28;20038;-77
2024/02/05 01:31:48;;;;;;;4.07;0.70;;;11.30;99.90;;;;;;4975758;28;20043;-77
2024/02/05 01:34:14;;;;;;;6.43;0.57;;;11.20;99.90;;;;;;4965794;28;20047;-77
2024/02/05 01:36:40;;;;;;;5.00;1.27;;;11.30;99.90;;;;;;4986137;28;20053;-77
2024/02/05 01:39:06;;;;;;;4.47;0.70;;;11.30;99.90;;;;;;4987598;28;20042;-77
2024/02/05 01:41:32;;;;;;;4.20;0.57;;;11.20;99.90;;;;;;4988652;28;20152;-77
2024/02/05 01:43:59;;;;;;;3.65;1.35;;;11.20;99.90;;;;;;4986832;28;20409;-77
2024/02/05 01:46:28;;;;;;;7.63;2.20;;;11.20;99.90;;;;;;4992354;28;20039;-77
2024/02/05 01:48:59;;;;;;;3.25;1.65;;;11.20;99.90;;;;;;4971015;28;20034;-77
2024/02/05 01:51:25;;;;;;;7.20;1.27;;;11.20;99.90;;;;;;4982871;28;20051;-75
2024/02/05 01:53:56;;;;;;;6.20;1.10;;;11.30;99.90;;;;;;4994155;28;20534;-76
2024/02/05 01:56:28;;;;;;;6.57;1.73;;;11.20;99.90;;;;;;4981313;28;20050;-75
2024/02/05 01:58:58;;;;;;;7.03;1.17;;;11.20;99.90;;;;;;4979147;28;20062;-76
2024/02/05 02:01:24;;;;;;;1.00;0.40;;;11.20;99.90;;;;;;4980809;28;20054;-76
2024/02/05 02:03:50;;;;;;;6.97;0.93;;;11.20;99.90;;;;;;4969392;28;20699;-75
2024/02/05 02:06:16;;;;;;;11.38;1.55;;;11.20;99.90;;;;;;4981785;28;20034;-76
2024/02/05 02:08:43;;;;;;;9.50;1.83;;;11.10;99.90;;;;;;4977817;28;20118;-75
2024/02/05 02:11:09;;;;;;;5.88;1.25;;;11.20;99.90;;;;;;4983948;28;20192;-75
2024/02/05 02:13:35;;;;;;;0.95;0.70;;;11.10;99.90;;;;;;4983257;28;20121;-77
2024/02/05 02:16:10;;;;;;;7.40;1.38;;;11.20;99.90;;;;;;4971014;28;20118;-76
2024/02/05 02:18:37;;;;;;;6.78;0.90;;;11.20;99.90;;;;;;4974632;28;20038;-77
2024/02/05 02:21:04;;;;;;;1.40;0.85;;;11.20;99.90;;;;;;4976327;28;20046;-76
2024/02/05 02:23:33;;;;;;;2.50;0.75;;;11.10;99.90;;;;;;4981018;28;20030;-76
2024/02/05 02:26:03;;;;;;;9.98;1.23;;;11.10;99.90;;;;;;4971887;28;20042;-76
2024/02/05 02:28:28;;;;;;;3.40;0.95;;;11.10;99.90;;;;;;4981912;28;20154;-76
2024/02/05 02:30:55;;;;;;;5.13;0.95;;;11.10;99.90;;;;;;4989012;28;20136;-77
2024/02/05 02:33:35;;;;;;;2.65;1.27;;;11.10;99.90;;;;;;4980996;28;20074;-76
2024/02/05 02:36:16;;;;;;;2.78;1.15;;;11.10;99.90;;;;;;4982875;28;20042;-76
2024/02/05 02:38:51;;;;;;;7.63;1.52;;;11.10;99.90;;;;;;4965567;28;20593;-77
2024/02/05 02:41:21;;;;;;;2.50;1.13;;;11.10;99.90;;;;;;4981254;28;20046;-77
2024/02/05 02:43:59;;;;;;;13.75;1.85;;;11.10;99.90;;;;;;4980524;28;20053;-75
2024/02/05 02:46:29;;;;;;;6.88;2.08;;;11.10;99.90;;;;;;4985252;28;20042;-75
2024/02/05 02:48:56;;;;;;;2.15;0.70;;;11.10;99.90;;;;;;4980663;28;20081;-76
2024/02/05 02:51:22;;;;;;;11.80;1.35;;;11.00;99.90;;;;;;4969312;28;20052;-75
2024/02/05 02:53:48;;;;;;;5.45;0.98;;;11.00;99.90;;;;;;4962537;28;20053;-76
2024/02/05 02:56:14;;;;;;;4.57;1.08;;;11.00;99.90;;;;;;4983441;28;20046;-75
2024/02/05 02:58:40;;;;;;;5.53;0.73;;;11.00;99.90;;;;;;4966096;28;20031;-76
2024/02/05 03:01:06;;;;;;;2.17;1.58;;;10.90;99.90;;;;;;4981729;28;20039;-75
2024/02/05 03:03:33;;;;;;;1.25;0.47;;;10.90;99.90;;;;;;4969622;28;20105;-75
2024/02/05 03:05:59;;;;;;;3.00;0.98;;;10.90;99.90;;;;;;4983879;28;20495;-75
2024/02/05 03:08:24;;;;;;;7.82;0.55;;;10.90;99.90;;;;;;4979086;28;20110;-75
2024/02/05 03:10:50;;;;;;;9.77;1.80;;;10.80;99.90;;;;;;4985604;28;20038;-75
2024/02/05 03:13:17;;;;;;;8.48;1.58;;;10.80;99.90;;;;;;4983937;28;20067;-75
2024/02/05 03:15:43;;;;;;;4.68;1.48;;;10.70;99.90;;;;;;4983750;28;20131;-75
2024/02/05 03:18:09;;;;;;;7.47;1.33;;;10.70;99.90;;;;;;4982447;28;20064;-76
2024/02/05 03:20:40;;;;;;;10.43;2.17;;;10.70;99.90;;;;;;4972161;28;20069;-75
2024/02/05 03:23:09;;;;;;;8.95;1.55;;;10.70;99.90;;;;;;4985515;28;20081;-74
2024/02/05 03:25:35;;;;;;;6.47;1.50;;;10.70;99.90;;;;;;4981679;28;20046;-75
2024/02/05 03:28:02;;;;;;;3.92;1.00;;;10.60;99.90;;;;;;4982506;28;20042;-75
2024/02/05 03:30:32;;;;;;;6.20;1.02;;;10.60;99.90;;;;;;4966040;28;20121;-74
2024/02/05 03:32:59;;;;;;;8.13;1.23;;;10.60;99.90;;;;;;4988640;28;20140;-75
2024/02/05 03:35:25;;;;;;;2.75;1.35;;;10.60;99.90;;;;;;4979610;28;20133;-74
2024/02/05 03:37:51;;;;;;;9.60;1.73;;;10.60;99.90;;;;;;4983227;28;20133;-75
2024/02/05 03:40:17;;;;;;;5.45;1.05;;;10.60;99.90;;;;;;4985460;28;20042;-75
2024/02/05 03:42:43;;;;;;;6.25;1.85;;;10.60;99.90;;;;;;4979688;28;20034;-75
2024/02/05 03:45:09;;;;;;;4.88;0.70;;;10.50;99.90;;;;;;4979902;28;20042;-75
2024/02/05 03:47:35;;;;;;;12.85;1.77;;;10.50;99.90;;;;;;4982611;28;20158;-75
2024/02/05 03:50:01;;;;;;;11.90;1.38;;;10.50;99.90;;;;;;4978032;28;20038;-75
2024/02/05 03:52:27;;;;;;;7.45;1.80;;;10.50;99.90;;;;;;4981090;28;20046;-75
2024/02/05 03:54:53;;;;;;;5.93;1.55;;;10.50;99.90;;;;;;4974182;28;20078;-75
2024/02/05 03:57:19;;;;;;;14.63;1.75;;;10.50;99.90;;;;;;4982102;28;20070;-75
2024/02/05 03:59:45;;;;;;;2.53;0.77;;;10.50;99.90;;;;;;4970726;28;20049;-75
2024/02/05 04:02:11;;;;;;;7.10;1.30;;;10.40;99.90;;;;;;4984190;28;20038;-75
2024/02/05 04:04:38;;;;;;;14.35;1.63;;;10.40;99.90;;;;;;4984650;28;20042;-75
2024/02/05 04:07:04;;;;;;;13.10;1.95;;;10.40;99.90;;;;;;4979464;28;20432;-75
2024/02/05 04:09:30;;;;;;;4.32;1.10;;;10.40;99.90;;;;;;4983252;28;20092;-75
2024/02/05 04:11:55;;;;;;;11.40;1.83;;;10.40;99.90;;;;;;4980157;28;20077;-75
2024/02/05 04:14:21;;;;;;;6.05;1.85;;;10.40;99.90;;;;;;4983257;28;20058;-74
2024/02/05 04:16:50;;;;;;;4.35;2.10;;;10.30;99.90;;;;;;4987644;28;20065;-74
2024/02/05 04:19:17;;;;;;;10.70;1.08;;;10.30;99.90;;;;;;4988390;28;20038;-74
2024/02/05 04:21:42;;;;;;;4.15;0.90;;;10.30;99.90;;;;;;4986074;28;20046;-75
2024/02/05 04:24:08;;;;;;;2.05;1.13;;;10.30;99.90;;;;;;4986023;28;20371;-74
2024/02/05 04:26:34;;;;;;;6.97;1.65;;;10.30;99.90;;;;;;4989217;28;20078;-75
2024/02/05 04:28:59;;;;;;;4.60;0.75;;;10.30;99.90;;;;;;4984607;28;20079;-75
2024/02/05 04:31:25;;;;;;;3.88;1.40;;;10.30;99.90;;;;;;4985600;28;20129;-74
2024/02/05 04:33:51;;;;;;;13.23;2.70;;;10.30;99.90;;;;;;4988325;28;20125;-74
2024/02/05 04:36:17;;;;;;;5.68;1.50;;;10.30;99.90;;;;;;4980431;28;20132;-75
2024/02/05 04:38:43;;;;;;;9.18;1.75;;;10.30;99.90;;;;;;4978803;28;20585;-75
2024/02/05 04:41:12;;;;;;;23.90;2.70;;;10.30;99.90;;;;;;4977282;28;20109;-73
2024/02/05 04:43:40;;;;;;;7.63;1.60;;;10.30;99.90;;;;;;4985887;28;20042;-75
2024/02/05 04:46:08;;;;;;;1.08;0.63;;;10.30;99.90;;;;;;4979353;28;20050;-75
2024/02/05 04:48:33;;;;;;;3.00;0.75;;;10.30;99.90;;;;;;4984327;28;20041;-75
2024/02/05 04:50:59;;;;;;;13.10;2.25;;;10.30;99.90;;;;;;4968140;28;20077;-75
2024/02/05 04:53:28;;;;;;;3.08;1.40;;;10.30;99.90;;;;;;4985423;28;20072;-75
2024/02/05 04:55:54;;;;;;;10.23;1.38;;;10.30;99.90;;;;;;4983521;28;20121;-75
2024/02/05 04:58:20;;;;;;;11.43;2.47;;;10.30;99.90;;;;;;4983342;28;20138;-75
2024/02/05 05:00:49;;;;;;;1.15;0.73;;;10.30;99.90;;;;;;4987778;28;20114;-74
2024/02/05 05:03:15;;;;;;;2.88;1.35;;;10.30;99.90;;;;;;4983955;28;20495;-75
2024/02/05 05:05:42;;;;;;;8.00;1.30;;;10.30;99.90;;;;;;4988336;28;20499;-76
2024/02/05 05:08:08;;;;;;;3.40;1.25;;;10.20;99.90;;;;;;4982241;28;20747;-77
2024/02/05 05:10:33;;;;;;;4.03;1.48;;;10.20;99.90;;;;;;4991830;28;20148;-77
2024/02/05 05:13:02;;;;;;;2.70;0.88;;;10.20;99.90;;;;;;4967693;28;20073;-76
2024/02/05 05:15:27;;;;;;;9.32;2.05;;;10.20;99.90;;;;;;4994286;28;20546;-75
2024/02/05 05:17:53;;;;;;;4.90;1.02;;;10.20;99.90;;;;;;4983053;28;20117;-75
2024/02/05 05:20:19;;;;;;;8.27;2.10;;;10.20;99.90;;;;;;4989280;28;20459;-75
2024/02/05 05:22:45;;;;;;;13.98;1.23;;;10.20;99.90;;;;;;4986920;28;20042;-76
2024/02/05 05:25:10;;;;;;;9.63;2.13;;;10.20;99.90;;;;;;4988530;28;20398;-76
2024/02/05 05:27:36;;;;;;;6.72;1.67;;;10.20;99.90;;;;;;4973557;28;20050;-76
2024/02/05 05:30:02;;;;;;;4.18;1.45;;;10.10;99.90;;;;;;4985987;28;20045;-75
2024/02/05 05:32:28;;;;;;;1.55;0.93;;;10.10;99.90;;;;;;4984127;28;20058;-76
2024/02/05 05:34:54;;;;;;;12.93;2.65;;;10.10;99.90;;;;;;4985163;28;20394;-76
2024/02/05 05:37:19;;;;;;;3.15;1.42;;;10.10;99.90;;;;;;4976765;28;20085;-76
2024/02/05 05:39:45;;;;;;;12.60;2.20;;;10.10;99.90;;;;;;4965076;28;20037;-75
2024/02/05 05:42:11;;;;;;;6.50;1.15;;;10.10;99.90;;;;;;4990629;28;20366;-75
2024/02/05 05:44:36;;;;;;;10.38;2.13;;;10.10;99.90;;;;;;4983801;28;20113;-75
2024/02/05 05:47:03;;;;;;;6.55;1.55;;;10.10;99.90;;;;;;4986205;28;20051;-75
2024/02/05 05:49:29;;;;;;;1.80;1.23;;;10.10;99.90;;;;;;4982555;28;20110;-76
2024/02/05 05:51:56;;;;;;;3.42;0.90;;;10.10;99.90;;;;;;4972607;28;20138;-75
2024/02/05 05:54:21;;;;;;;4.90;1.27;;;10.10;99.90;;;;;;4980972;28;20088;-75
2024/02/05 05:56:47;;;;;;;3.40;0.90;;;10.10;99.90;;;;;;4975172;28;20046;-74
2024/02/05 05:59:14;;;;;;;7.05;1.40;;;10.10;99.90;;;;;;4982610;28;20454;-75
2024/02/05 06:01:40;;;;;;;11.10;1.38;;;10.20;99.90;;;;;;4984945;28;20042;-75
2024/02/05 06:04:06;;;;;;;10.70;1.75;;;10.20;99.90;;;;;;4983443;28;20034;-76
2024/02/05 06:06:33;;;;;;;4.32;1.50;;;10.20;99.90;;;;;;4986283;28;20046;-76
2024/02/05 06:09:02;;;;;;;8.82;1.60;;;10.20;99.90;;;;;;4980494;28;20046;-76
2024/02/05 06:11:28;;;;;;;9.52;1.20;;;10.20;99.90;;;;;;4980703;28;20038;-75
2024/02/05 06:13:53;;;;;;;4.50;1.25;;;10.20;99.90;;;;;;4968084;28;20360;-76
2024/02/05 06:16:19;;;;;;;8.02;1.67;;;10.20;99.90;;;;;;4985890;28;20135;-76
2024/02/05 06:18:45;;;;;;;7.07;1.42;;;10.20;99.90;;;;;;4987701;28;20045;-76
2024/02/05 06:21:11;;;;;;;7.18;1.08;;;10.20;99.90;;;;;;4983063;28;20046;-76
2024/02/05 06:23:36;;;;;;;3.25;0.93;;;10.20;99.90;;;;;;4976588;28;20402;-76
2024/02/05 06:26:03;;;;;;;12.88;3.55;;;10.20;99.90;;;;;;4976630;28;20078;-76
2024/02/05 06:28:28;;;;;;;3.85;1.65;;;10.10;99.90;;;;;;4986380;28;20125;-76
2024/02/05 06:30:54;;;;;;;9.65;1.17;;;10.10;99.90;;;;;;4982520;28;20610;-75
2024/02/05 06:33:20;;;;;;;12.32;1.17;;;10.10;99.90;;;;;;4990862;28;20070;-75
2024/02/05 06:35:46;;;;;;;10.32;1.58;;;10.10;99.90;;;;;;4969988;28;20464;-76
2024/02/05 06:38:12;;;;;;;6.10;0.85;;;10.10;99.90;;;;;;4980889;28;20042;-76
2024/02/05 06:40:38;;;;;;;3.33;0.98;;;10.10;99.90;;;;;;4981129;28;20069;-78
2024/02/05 06:43:06;;;;;;;4.35;1.67;;;10.10;99.90;;;;;;4987413;28;20066;-77
2024/02/05 06:45:35;;;;;;;6.30;1.55;;;10.10;99.90;;;;;;4982290;28;20475;-77
2024/02/05 06:48:01;;;;;;;6.53;1.75;;;10.10;99.90;;;;;;4967850;28;20450;-78
2024/02/05 06:50:27;;;;;;;12.35;2.45;;;10.00;99.90;;;;;;4981186;28;20061;-77
2024/02/05 06:52:53;;;;;;;2.30;0.88;;;10.10;99.90;;;;;;4972612;28;20050;-77
2024/02/05 06:55:18;;;;;;;3.85;1.02;;;10.10;99.90;;;;;;4982548;28;20141;-75
2024/02/05 06:57:45;;;;;;;8.43;1.90;;;10.10;99.90;;;;;;4984605;28;20383;-76
2024/02/05 07:00:12;;;;;;;1.40;0.68;;;10.00;99.90;;;;;;4980860;28;20046;-75
2024/02/05 07:02:38;;;;;;;9.57;0.80;;;10.00;99.90;;;;;;4984676;28;20064;-75
2024/02/05 07:05:05;;;;;;;8.77;1.52;;;10.00;99.90;;;;;;4980924;28;20138;-75
2024/02/05 07:07:30;;;;;;;7.53;0.98;;;10.00;99.90;;;;;;4976347;28;20045;-75
2024/02/05 07:09:56;;;;;;;14.43;2.47;;;10.10;99.90;;;;;;4969736;28;20045;-76
2024/02/05 07:12:22;;;;;;;5.05;1.23;;;10.00;99.90;;;;;;4982458;28;20042;-76
2024/02/05 07:14:48;;;;;;;8.23;1.63;;;10.00;99.90;;;;;;4986348;28;20381;-79
2024/02/05 07:17:15;;;;;;;11.32;2.22;;;10.10;99.90;;;;;;4981544;28;20122;-79
2024/02/05 07:19:41;;;;;;;5.60;1.05;;;10.00;99.90;;;;;;4972404;28;20074;-78
2024/02/05 07:22:10;;;;;;;7.65;2.42;;;10.00;99.90;;;;;;4980575;28;20137;-79
2024/02/05 07:24:36;;;;;;;4.97;1.85;;;10.00;99.90;;;;;;4982997;28;20104;-79
2024/02/05 07:27:02;;;;;;;5.45;1.00;;;9.90;99.90;;;;;;4982037;28;20045;-79
2024/02/05 07:29:28;;;;;;;7.68;0.95;;;9.90;99.90;;;;;;4985151;28;20517;-78
2024/02/05 07:31:54;;;;;;;6.70;1.23;;;9.90;99.90;;;;;;4980406;28;20656;-80
2024/02/05 07:34:20;;;;;;;11.10;2.17;;;9.90;99.90;;;;;;4986067;28;20065;-79
2024/02/05 07:36:47;;;;;;;2.35;1.15;;;9.90;99.90;;;;;;4966011;28;20045;-81
2024/02/05 07:39:13;;;;;;;12.15;1.55;;;9.90;99.90;;;;;;4982995;28;20047;-79
2024/02/05 07:41:39;;;;;;;4.20;1.25;;;9.90;99.90;;;;;;4987304;28;20038;-80
2024/02/05 07:44:04;;;;;;;6.38;1.73;;;9.90;99.90;;;;;;4984368;28;20035;-80
2024/02/05 07:46:30;;;;;;;2.28;1.38;;;9.90;99.90;;;;;;4978683;28;20035;-80
2024/02/05 07:48:59;;;;;;;7.05;2.00;;;9.90;99.90;;;;;;4977424;28;20050;-81
2024/02/05 07:51:25;;;;;;;12.05;2.38;;;9.90;99.90;;;;;;4983305;28;20113;-80
2024/02/05 07:53:51;;;;;;;17.98;1.98;;;9.90;99.90;;;;;;4979313;28;20098;-80
2024/02/05 07:56:17;;;;;;;6.38;1.17;;;9.80;99.90;;;;;;4970909;28;20128;-80
2024/02/05 07:58:43;;;;;;;11.25;1.65;;;9.80;99.90;;;;;;4976619;28;20089;-80
2024/02/05 08:01:10;;;;;;;7.07;1.88;;;9.90;99.90;;;;;;4965012;28;20126;-80
2024/02/05 08:03:36;;;;;;;3.97;2.42;;;9.90;99.90;;;;;;4979159;28;20490;-81
2024/02/05 08:06:06;;;;;;;3.92;1.55;;;9.80;99.90;;;;;;4980798;28;20035;-79
2024/02/05 08:08:32;;;;;;;2.45;0.93;;;9.80;99.90;;;;;;4968560;28;20041;-82
2024/02/05 08:10:58;;;;;;;7.30;1.45;;;9.90;99.90;;;;;;4986268;28;20491;-80
2024/02/05 08:13:29;;;;;;;5.50;2.22;;;9.90;99.90;;;;;;4981457;28;20063;-80
2024/02/05 08:15:57;;;;;;;7.78;1.40;;;9.90;99.90;;;;;;4985732;28;20552;-80
2024/02/05 08:18:23;;;;;;;5.68;1.27;;;9.90;99.90;;;;;;4968168;28;20039;-80
2024/02/05 08:20:48;;;;;;;14.68;2.17;;;9.90;99.90;;;;;;4965362;28;20141;-80
2024/02/05 08:23:14;;;;;;;2.78;1.33;;;9.90;99.90;;;;;;4982317;28;20049;-80
2024/02/05 08:25:40;;;;;;;6.88;1.48;;;9.80;99.90;;;;;;4971723;28;20041;-80
2024/02/05 08:28:05;;;;;;;3.13;1.27;;;9.80;99.90;;;;;;4983754;28;20122;-81
2024/02/05 08:30:31;;;;;;;4.18;1.92;;;9.80;99.90;;;;;;4964673;28;20050;-79
2024/02/05 08:32:57;;;;;;;7.28;2.95;;;9.80;99.90;;;;;;4967134;28;20371;-78
2024/02/05 08:35:23;;;;;;;12.18;1.00;;;9.80;99.90;;;;;;4993396;28;20039;-79
2024/02/05 08:37:48;;;;;;;6.75;0.98;;;9.90;99.90;;;;;;4986034;28;20109;-79
2024/02/05 08:40:14;;;;;;;4.65;1.30;;;9.80;99.90;;;;;;4983560;28;20173;-81
2024/02/05 08:42:41;;;;;;;3.53;1.48;;;9.80;99.90;;;;;;4969528;28;20156;-80
2024/02/05 08:45:07;;;;;;;8.57;1.85;;;9.80;99.90;;;;;;4974443;28;20041;-79
2024/02/05 08:47:33;;;;;;;5.82;1.23;;;9.80;99.90;;;;;;4982734;28;20038;-79
2024/02/05 08:49:59;;;;;;;3.17;1.40;;;9.80;99.90;;;;;;4980741;28;20070;-79
2024/02/05 08:52:24;;;;;;;2.22;1.08;;;9.80;99.90;;;;;;4979499;28;20102;-79
2024/02/05 08:54:50;;;;;;;4.15;1.23;;;9.80;99.90;;;;;;4966973;28;20343;-79
2024/02/05 08:57:16;;;;;;;5.68;2.03;;;9.80;99.90;;;;;;4981004;28;20047;-78
2024/02/05 08:59:45;;;;;;;10.48;1.27;;;9.80;99.90;;;;;;4968641;28;20125;-79
2024/02/05 09:02:14;;;;;;;5.53;0.90;;;9.80;99.90;;;;;;4987502;28;20042;-78
2024/02/05 09:04:40;;;;;;;4.70;1.58;;;9.80;99.90;;;;;;4986742;28;20120;-79
2024/02/05 09:07:06;;;;;;;9.20;1.70;;;9.80;99.90;;;;;;4973676;28;20691;-80
2024/02/05 09:09:31;;;;;;;7.18;1.30;;;9.90;99.90;;;;;;4982779;28;20382;-80
2024/02/05 09:11:59;;;;;;;5.03;1.58;;;9.90;99.90;;;;;;4988662;28;20035;-80
2024/02/05 09:14:24;;;;;;;12.43;1.40;;;9.90;99.90;;;;;;4989050;28;20366;-81
2024/02/05 09:16:50;;;;;;;3.00;1.02;;;9.90;99.90;;;;;;4984941;28;20042;-79
2024/02/05 09:19:16;;;;;;;4.93;1.92;;;9.90;99.90;;;;;;4977388;28;20047;-79
2024/02/05 09:21:41;;;;;;;4.68;1.10;;;9.90;99.90;;;;;;4968831;28;20046;-79
2024/02/05 09:24:07;;;;;;;4.47;1.77;;;10.00;99.90;;;;;;4973241;28;20559;-80
2024/02/05 09:26:33;;;;;;;10.23;1.73;;;10.00;99.90;;;;;;4966867;28;20101;-79
2024/02/05 09:28:58;;;;;;;1.17;0.80;;;10.00;99.90;;;;;;4971055;28;20038;-80
2024/02/05 09:31:24;;;;;;;9.13;1.85;;;10.00;99.90;;;;;;4985668;28;20174;-79
2024/02/05 09:33:50;;;;;;;6.40;1.60;;;10.00;99.90;;;;;;4970433;28;20517;-80
2024/02/05 09:36:16;;;;;;;4.53;1.27;;;10.00;99.90;;;;;;4983073;28;20052;-79
2024/02/05 09:38:42;;;;;;;10.40;1.48;;;10.00;99.90;;;;;;4990089;28;20125;-80
2024/02/05 09:41:11;;;;;;;7.45;2.40;;;10.00;99.90;;;;;;4984286;28;20471;-81
2024/02/05 09:43:38;;;;;;;2.80;1.20;;;10.00;99.90;;;;;;4984780;28;20038;-80
2024/02/05 09:46:05;;;;;;;13.15;2.10;;;10.00;99.90;;;;;;4968488;28;20072;-81
2024/02/05 09:48:35;;;;;;;4.75;0.75;;;10.00;99.90;;;;;;4993212;28;20053;-81
2024/02/05 09:51:04;;;;;;;1.73;0.98;;;10.10;99.90;;;;;;4983214;28;20547;-80
2024/02/05 09:53:32;;;;;;;4.75;1.15;;;10.10;99.90;;;;;;4983923;28;20561;-80
2024/02/05 09:56:00;;;;;;;5.18;0.80;;;10.10;99.90;;;;;;4985902;28;20034;-81
2024/02/05 09:58:26;;;;;;;5.13;1.30;;;10.20;99.90;;;;;;4969903;28;20046;-82
2024/02/05 10:00:52;;;;;;;7.68;1.45;;;10.20;99.90;;;;;;4985502;28;20054;-81
2024/02/05 10:03:21;;;;;;;4.00;1.30;;;10.20;99.90;;;;;;4981620;28;20042;-82
2024/02/05 10:05:52;;;;;;;6.03;1.25;;;10.20;99.90;;;;;;4977213;28;20038;-81
2024/02/05 10:08:19;;;;;;;5.40;1.27;;;10.20;99.90;;;;;;4971717;28;20846;-82
2024/02/05 10:10:47;;;;;;;2.78;1.10;;;10.30;99.90;;;;;;4972761;28;20043;-81
2024/02/05 10:13:13;;;;;;;1.33;0.50;;;10.30;99.90;;;;;;4965476;28;20423;-82
2024/02/05 10:15:41;;;;;;;4.72;1.15;;;10.30;99.90;;;;;;4985707;28;20517;-81
2024/02/05 10:18:10;;;;;;;4.53;1.27;;;10.30;99.90;;;;;;4980845;28;20051;-80
2024/02/05 10:20:38;;;;;;;4.45;0.98;;;10.30;99.90;;;;;;4985030;28;20693;-80
2024/02/05 10:23:03;;;;;;;10.90;1.67;;;10.30;99.90;;;;;;4977529;28;20046;-82
2024/02/05 10:25:29;;;;;;;2.42;1.58;;;10.30;99.90;;;;;;4984709;28;20042;-80
2024/02/05 10:28:01;;;;;;;6.47;2.17;;;10.30;99.90;;;;;;4988248;28;20675;-80
2024/02/05 10:30:28;;;;;;;7.57;1.55;;;10.20;99.90;;;;;;4976870;28;20180;-80
2024/02/05 10:32:58;;;;;;;11.82;1.85;;;10.20;99.90;;;;;;4968323;28;20035;-81
2024/02/05 10:35:25;;;;;;;11.13;1.27;;;10.20;99.90;;;;;;4974736;28;20396;-81
2024/02/05 10:37:51;;;;;;;1.35;0.65;;;10.20;99.90;;;;;;4978042;28;20400;-80
2024/02/05 10:40:17;;;;;;;3.97;1.25;;;10.20;99.90;;;;;;4986074;28;20068;-81
2024/02/05 10:42:43;;;;;;;4.43;1.60;;;10.20;99.90;;;;;;4988417;28;20034;-80
2024/02/05 10:45:10;;;;;;;12.75;1.67;;;10.20;99.90;;;;;;4982769;28;20046;-81
2024/02/05 10:47:36;;;;;;;10.88;1.75;;;10.20;99.90;;;;;;4985496;28;20396;-81
2024/02/05 10:50:07;;;;;;;7.55;0.82;;;10.10;99.90;;;;;;4984440;28;20052;-81
2024/02/05 10:52:33;;;;;;;5.82;1.00;;;10.10;99.90;;;;;;4963105;28;20038;-80
2024/02/05 10:55:02;;;;;;;7.03;1.33;;;10.10;99.90;;;;;;4962449;28;20134;-78
2024/02/05 10:57:28;;;;;;;6.72;2.65;;;10.10;99.90;;;;;;4986548;28;20046;-79
2024/02/05 10:59:54;;;;;;;9.60;1.52;;;10.10;99.90;;;;;;4963778;28;20046;-80
2024/02/05 11:02:25;;;;;;;3.53;0.93;;;10.10;99.90;;;;;;4970545;28;20041;-82
2024/02/05 11:04:54;;;;;;;5.93;1.52;;;10.00;99.90;;;;;;4983717;28;20104;-80
2024/02/05 11:07:24;;;;;;;9.60;1.55;;;10.00;99.90;;;;;;4981602;28;20498;-80
2024/02/05 11:09:50;;;;;;;9.85;2.60;;;10.00;99.90;;;;;;4971399;28;20088;-80
2024/02/05 11:12:19;;;;;;;1.45;0.35;;;10.10;99.90;;;;;;4966083;28;20043;-79
2024/02/05 11:14:46;;;;;;;6.13;1.70;;;10.10;99.90;;;;;;4983458;28;20637;-79
2024/02/05 11:17:14;;;;;;;10.25;1.17;;;10.10;99.90;;;;;;4965746;28;20399;-79
2024/02/05 11:19:41;;;;;;;2.83;1.15;;;10.10;99.90;;;;;;4966844;28;20125;-79
2024/02/05 11:22:08;;;;;;;5.28;1.67;;;10.00;99.90;;;;;;4975086;28;20090;-80
2024/02/05 11:24:34;;;;;;;4.45;1.15;;;10.00;99.90;;;;;;4985457;28;20031;-79
2024/02/05 11:27:04;;;;;;;4.55;0.98;;;10.00;99.90;;;;;;4975509;28;20041;-81
2024/02/05 11:29:32;;;;;;;2.58;0.90;;;10.00;99.90;;;;;;4977293;28;20414;-79
2024/02/05 11:32:00;;;;;;;12.30;1.48;;;10.00;99.90;;;;;;4982739;28;20480;-80
2024/02/05 11:34:41;;;;;;;6.07;1.60;;;10.10;99.90;;;;;;4980982;28;20049;-80
2024/02/05 11:37:08;;;;;;;7.68;1.33;;;10.10;99.90;;;;;;4966909;28;20089;-79
2024/02/05 11:39:34;;;;;;;5.82;1.25;;;10.10;99.90;;;;;;4985441;28;20101;-82
2024/02/05 11:42:07;;;;;;;7.78;0.70;;;10.10;99.90;;;;;;4965132;28;20030;-79
2024/02/05 11:44:52;;;;;;;7.90;2.38;;;10.00;99.90;;;;;;4983548;28;20053;-79
2024/02/05 11:47:18;;;;;;;7.55;1.77;;;10.00;99.90;;;;;;4981228;28;20038;-81
2024/02/05 11:49:44;;;;;;;7.45;1.05;;;10.00;99.90;;;;;;4970210;28;20463;-79
2024/02/05 11:52:10;;;;;;;9.27;1.95;;;10.00;99.90;;;;;;4964670;28;20038;-81
2024/02/05 11:54:36;;;;;;;6.88;1.52;;;10.00;99.90;;;;;;4972327;28;20065;-79
2024/02/05 11:57:02;;;;;;;9.70;1.88;;;10.00;99.90;;;;;;4974729;28;20098;-80
2024/02/05 11:59:28;;;;;;;5.43;1.27;;;10.00;99.90;;;;;;4979813;28;20046;-80
2024/02/05 12:01:54;;;;;;;3.80;0.95;;;10.00;99.90;;;;;;4984264;28;20070;-80
2024/02/05 12:04:21;;;;;;;12.10;1.63;;;10.00;99.90;;;;;;4983555;28;20070;-78
2024/02/05 12:06:47;;;;;;;5.28;2.63;;;10.10;99.90;;;;;;4975752;28;20031;-78
2024/02/05 12:09:16;;;;;;;0.55;0.40;;;10.10;99.90;;;;;;4983923;28;20130;-78
2024/02/05 12:11:42;;;;;;;8.93;1.77;;;10.10;99.90;;;;;;4990249;28;20584;-77
2024/02/05 12:14:12;;;;;;;2.60;1.02;;;10.10;99.90;;;;;;4983099;28;20050;-78
2024/02/05 12:16:39;;;;;;;2.92;1.33;;;10.10;99.90;;;;;;4978912;28;20077;-78
2024/02/05 12:19:05;;;;;;;6.82;1.75;;;10.10;99.90;;;;;;4969094;28;20081;-79
2024/02/05 12:21:31;;;;;;;9.82;1.85;;;10.10;99.90;;;;;;4976995;28;20431;-78
2024/02/05 12:23:58;;;;;;;4.80;1.67;;;10.00;99.90;;;;;;4982451;28;20446;-80
2024/02/05 12:26:27;;;;;;;2.97;1.20;;;10.00;99.90;;;;;;4984392;28;20042;-81
2024/02/05 12:28:54;;;;;;;3.97;1.00;;;10.00;99.90;;;;;;4982800;28;20158;-79
2024/02/05 12:31:23;;;;;;;7.88;1.17;;;10.00;99.90;;;;;;4982703;28;20054;-79
2024/02/05 12:33:56;;;;;;;4.28;1.02;;;10.00;99.90;;;;;;4966203;28;20046;-80
2024/02/05 12:36:24;;;;;;;11.10;1.85;;;10.00;99.90;;;;;;4983140;28;20038;-80
2024/02/05 12:38:52;;;;;;;6.93;1.73;;;10.00;99.90;;;;;;4972727;28;20432;-84
2024/02/05 12:41:18;;;;;;;6.22;2.13;;;10.00;99.90;;;;;;4986716;28;20047;-84
2024/02/05 12:43:44;;;;;;;3.60;0.80;;;10.00;99.90;;;;;;4970744;28;20031;-80
2024/02/05 12:46:11;;;;;;;1.00;0.90;;;10.00;99.90;;;;;;4985884;28;20030;-79